createdAt,value
2023-02-17T00:01:17.500Z,1.80
2023-02-17T00:03:48.337Z,1.90
2023-02-17T00:06:17.109Z,1.90
2023-02-17T00:08:44.686Z,1.90
2023-02-17T00:11:12.322Z,1.80
2023-02-17T00:13:40.091Z,1.80
2023-02-17T00:16:13.207Z,1.90
2023-02-17T00:18:40.552Z,1.90
2023-02-17T00:21:11.524Z,1.90
2023-02-17T00:23:38.788Z,2.00
2023-02-17T00:26:06.925Z,2.00
2023-02-17T00:28:34.432Z,2.00
2023-02-17T00:31:06.141Z,1.90
2023-02-17T00:33:34.859Z,2.00
2023-02-17T00:36:10.200Z,1.90
2023-02-17T00:38:37.662Z,2.00
2023-02-17T00:41:05.156Z,2.00
2023-02-17T00:43:32.555Z,1.90
2023-02-17T00:45:59.804Z,1.90
2023-02-17T00:48:53.044Z,1.90
2023-02-17T00:51:20.483Z,1.90
2023-02-17T00:53:47.729Z,2.00
2023-02-17T00:56:15.112Z,2.00
2023-02-17T00:58:44.454Z,2.00
2023-02-17T01:01:12.452Z,2.00
2023-02-17T01:03:42.515Z,2.00
2023-02-17T01:06:11.652Z,2.00
2023-02-17T01:08:41.158Z,2.00
2023-02-17T01:11:08.289Z,2.00
2023-02-17T01:13:35.598Z,2.00
2023-02-17T01:16:02.896Z,2.00
2023-02-17T01:18:30.215Z,2.10
2023-02-17T01:20:57.606Z,2.10
2023-02-17T01:23:24.811Z,2.10
2023-02-17T01:25:53.373Z,2.10
2023-02-17T01:28:22.575Z,2.10
2023-02-17T01:30:50.008Z,2.10
2023-02-17T01:33:17.357Z,2.10
2023-02-17T01:35:45.853Z,2.10
2023-02-17T01:38:13.107Z,2.10
2023-02-17T01:40:49.367Z,2.20
2023-02-17T01:43:17.722Z,2.20
2023-02-17T01:45:52.276Z,2.10
2023-02-17T01:48:21.391Z,2.10
2023-02-17T01:51:08.984Z,2.10
2023-02-17T01:53:41.966Z,2.10
2023-02-17T01:56:11.906Z,2.10
2023-02-17T01:58:41.306Z,2.10
2023-02-17T02:01:09.012Z,2.20
2023-02-17T02:03:37.393Z,2.20
2023-02-17T02:06:07.867Z,2.20
2023-02-17T02:08:39.018Z,2.20
2023-02-17T02:11:06.400Z,2.10
2023-02-17T02:13:33.791Z,2.20
2023-02-17T02:16:14.682Z,2.20
2023-02-17T02:18:42.954Z,2.20
2023-02-17T02:21:24.297Z,2.30
2023-02-17T02:23:54.699Z,2.30
2023-02-17T02:26:24.389Z,2.30
2023-02-17T02:28:54.833Z,2.40
2023-02-17T02:31:28.359Z,2.40
2023-02-17T02:34:02.025Z,2.40
2023-02-17T02:36:43.622Z,2.40
2023-02-17T02:39:13.145Z,2.40
2023-02-17T02:41:42.732Z,2.40
2023-02-17T02:44:13.062Z,2.40
2023-02-17T02:46:41.202Z,2.40
2023-02-17T02:49:09.077Z,2.40
2023-02-17T02:51:39.952Z,2.40
2023-02-17T02:54:26.470Z,2.40
2023-02-17T02:57:05.067Z,2.40
2023-02-17T02:59:53.512Z,2.40
2023-02-17T03:02:20.861Z,2.40
2023-02-17T03:04:48.212Z,2.40
2023-02-17T03:07:22.293Z,2.40
2023-02-17T03:09:51.427Z,2.40
2023-02-17T03:12:19.525Z,2.40
2023-02-17T03:14:48.504Z,2.40
2023-02-17T03:17:17.433Z,2.30
2023-02-17T03:19:49.591Z,2.30
2023-02-17T03:22:29.209Z,2.30
2023-02-17T03:24:56.554Z,2.30
2023-02-17T03:27:24.771Z,2.30
2023-02-17T03:29:52.287Z,2.30
2023-02-17T03:32:20.818Z,2.30
2023-02-17T03:34:48.275Z,2.30
2023-02-17T03:37:15.500Z,2.30
2023-02-17T03:39:42.890Z,2.30
2023-02-17T03:42:11.245Z,2.30
2023-02-17T03:44:38.620Z,2.30
2023-02-17T03:47:05.964Z,2.40
2023-02-17T03:49:33.182Z,2.40
2023-02-17T03:52:00.655Z,2.40
2023-02-17T03:54:28.248Z,2.40
2023-02-17T03:56:55.797Z,2.40
2023-02-17T03:59:23.727Z,2.30
2023-02-17T04:01:51.101Z,2.40
2023-02-17T04:04:18.513Z,2.30
2023-02-17T04:06:45.881Z,2.30
2023-02-17T04:09:13.266Z,2.40
2023-02-17T04:11:40.519Z,2.40
2023-02-17T04:14:08.287Z,2.40
2023-02-17T04:16:35.695Z,2.40
2023-02-17T04:19:03.266Z,2.50
2023-02-17T04:21:30.565Z,2.50
2023-02-17T04:23:58.121Z,2.50
2023-02-17T04:26:25.485Z,2.50
2023-02-17T04:28:52.765Z,2.50
2023-02-17T04:31:20.174Z,2.50
2023-02-17T04:33:47.461Z,2.50
2023-02-17T04:36:14.684Z,2.50
2023-02-17T04:38:41.943Z,2.60
2023-02-17T04:41:09.572Z,2.50
2023-02-17T04:43:36.828Z,2.50
2023-02-17T04:46:04.655Z,2.50
2023-02-17T04:48:32.257Z,2.50
2023-02-17T04:50:59.525Z,2.50
2023-02-17T04:53:26.891Z,2.60
2023-02-17T04:55:54.092Z,2.60
2023-02-17T04:58:21.488Z,2.60
2023-02-17T05:00:49.303Z,2.60
2023-02-17T05:03:17.110Z,2.60
2023-02-17T05:05:44.585Z,2.60
2023-02-17T05:08:12.001Z,2.60
2023-02-17T05:10:39.236Z,2.60
2023-02-17T05:13:08.719Z,2.60
2023-02-17T05:15:36.122Z,2.50
2023-02-17T05:18:03.662Z,2.50
2023-02-17T05:20:31.680Z,2.50
2023-02-17T05:22:58.924Z,2.50
2023-02-17T05:25:26.362Z,2.50
2023-02-17T05:27:53.623Z,2.50
2023-02-17T05:30:21.186Z,2.50
2023-02-17T05:32:49.000Z,2.40
2023-02-17T05:35:16.326Z,2.40
2023-02-17T05:37:43.746Z,2.40
2023-02-17T05:40:11.373Z,2.40
2023-02-17T05:42:38.496Z,2.30
2023-02-17T05:45:05.930Z,2.40
2023-02-17T05:47:33.260Z,2.30
2023-02-17T05:50:00.450Z,2.10
2023-02-17T05:52:27.943Z,2.10
2023-02-17T05:54:55.172Z,2.10
2023-02-17T05:57:22.351Z,2.10
2023-02-17T05:59:53.570Z,2.00
2023-02-17T06:02:21.378Z,2.10
2023-02-17T06:04:48.955Z,2.10
2023-02-17T06:07:16.255Z,2.00
2023-02-17T06:09:44.870Z,2.00
2023-02-17T06:12:13.661Z,2.10
2023-02-17T06:14:40.967Z,2.00
2023-02-17T06:17:08.445Z,2.00
2023-02-17T06:19:35.633Z,2.00
2023-02-17T06:22:03.121Z,2.00
2023-02-17T06:24:30.395Z,2.00
2023-02-17T06:26:58.033Z,1.90
2023-02-17T06:29:25.521Z,1.90
2023-02-17T06:31:52.767Z,1.90
2023-02-17T06:34:20.232Z,1.90
2023-02-17T06:36:47.518Z,1.90
2023-02-17T06:39:15.091Z,1.90
2023-02-17T06:41:43.028Z,1.90
2023-02-17T06:44:10.428Z,1.90
2023-02-17T06:46:37.758Z,2.00
2023-02-17T06:49:05.473Z,2.00
2023-02-17T06:51:32.817Z,2.10
2023-02-17T06:54:00.170Z,2.20
2023-02-17T06:56:28.036Z,2.30
2023-02-17T06:58:58.326Z,2.40
2023-02-17T07:01:26.586Z,2.50
2023-02-17T07:03:54.525Z,2.60
2023-02-17T07:06:24.010Z,2.70
2023-02-17T07:08:51.449Z,2.80
2023-02-17T07:11:19.139Z,2.90
2023-02-17T07:13:46.514Z,3.10
2023-02-17T07:16:14.280Z,3.30
2023-02-17T07:18:41.950Z,3.70
2023-02-17T07:21:09.412Z,4.20
2023-02-17T07:23:37.514Z,4.80
2023-02-17T07:26:06.512Z,5.50
2023-02-17T07:28:33.878Z,6.20
2023-02-17T07:31:07.919Z,6.70
2023-02-17T07:33:35.294Z,7.10
2023-02-17T07:36:07.099Z,7.60
2023-02-17T07:38:34.999Z,7.90
2023-02-17T07:41:09.555Z,8.60
2023-02-17T07:43:36.913Z,8.80
2023-02-17T07:49:39.244Z,8.90
2023-02-17T07:52:07.238Z,9.20
2023-02-17T07:54:34.539Z,9.90
2023-02-17T07:57:02.638Z,10.30
2023-02-17T07:59:29.922Z,11.00
2023-02-17T08:01:57.404Z,11.70
2023-02-17T08:04:24.833Z,12.20
2023-02-17T08:06:52.144Z,12.40
2023-02-17T08:09:38.112Z,12.70
2023-02-17T08:12:23.828Z,13.20
2023-02-17T08:14:51.102Z,13.30
2023-02-17T08:17:18.352Z,13.30
2023-02-17T08:19:48.907Z,13.40
2023-02-17T08:22:17.232Z,14.00
2023-02-17T08:24:44.738Z,14.80
2023-02-17T08:27:14.647Z,15.40
2023-02-17T08:29:42.605Z,16.20
2023-02-17T08:32:09.994Z,17.20
2023-02-17T08:34:37.442Z,18.10
2023-02-17T08:37:06.298Z,18.40
2023-02-17T08:39:34.355Z,19.00
2023-02-17T08:42:02.065Z,19.60
2023-02-17T08:44:29.542Z,19.70
2023-02-17T08:46:56.838Z,20.60
2023-02-17T08:49:26.088Z,21.30
2023-02-17T08:51:53.866Z,21.60
2023-02-17T08:54:21.306Z,22.30
2023-02-17T08:56:48.686Z,23.30
2023-02-17T08:59:16.254Z,23.80
2023-02-17T09:01:44.195Z,24.10
2023-02-17T09:04:13.043Z,25.10
2023-02-17T09:06:45.204Z,26.60
2023-02-17T09:09:13.048Z,27.00
2023-02-17T09:11:40.482Z,27.40
2023-02-17T09:14:08.448Z,26.20
2023-02-17T09:16:35.985Z,25.30
2023-02-17T09:19:03.732Z,24.30
2023-02-17T09:21:31.371Z,22.60
2023-02-17T09:23:58.787Z,22.90
2023-02-17T09:26:26.331Z,25.30
2023-02-17T09:28:53.556Z,23.80
2023-02-17T09:31:22.350Z,25.60
2023-02-17T09:33:50.658Z,25.90
2023-02-17T09:36:23.493Z,26.00
2023-02-17T09:38:51.536Z,25.40
2023-02-17T09:41:21.686Z,24.80
2023-02-17T09:43:49.277Z,24.90
2023-02-17T09:46:25.936Z,23.80
2023-02-17T09:48:53.961Z,25.30
2023-02-17T09:51:33.593Z,24.90
2023-02-17T09:54:05.020Z,25.40
2023-02-17T09:56:39.574Z,24.80
2023-02-17T09:59:11.622Z,24.30
2023-02-17T10:01:40.460Z,22.90
2023-02-17T10:04:17.268Z,24.90
2023-02-17T10:06:46.478Z,27.50
2023-02-17T10:09:13.875Z,29.70
2023-02-17T10:12:00.220Z,30.20
2023-02-17T10:14:29.258Z,29.40
2023-02-17T10:17:16.453Z,28.20
2023-02-17T10:19:52.370Z,29.20
2023-02-17T10:22:20.527Z,30.60
2023-02-17T10:24:47.727Z,30.30
2023-02-17T10:27:18.394Z,30.60
2023-02-17T10:29:52.185Z,31.80
2023-02-17T10:32:20.310Z,30.60
2023-02-17T10:35:13.260Z,31.90
2023-02-17T10:37:48.693Z,31.10
2023-02-17T10:40:19.324Z,27.90
2023-02-17T10:42:47.645Z,26.00
2023-02-17T10:45:31.571Z,23.90
2023-02-17T10:48:08.290Z,24.10
2023-02-17T10:50:37.079Z,27.60
2023-02-17T10:53:12.313Z,29.60
2023-02-17T10:55:49.583Z,30.70
2023-02-17T10:58:22.386Z,31.30
2023-02-17T11:00:52.066Z,30.50
2023-02-17T11:03:20.681Z,30.50
2023-02-17T11:05:58.567Z,29.20
2023-02-17T11:08:34.491Z,26.40
2023-02-17T11:11:06.220Z,23.90
2023-02-17T11:13:38.453Z,22.70
2023-02-17T11:16:06.805Z,22.00
2023-02-17T11:18:36.451Z,21.40
2023-02-17T11:21:08.545Z,21.10
2023-02-17T11:23:36.838Z,21.10
2023-02-17T11:26:12.143Z,20.80
2023-02-17T11:28:39.477Z,19.90
2023-02-17T11:31:07.576Z,19.40
2023-02-17T11:33:36.464Z,19.40
2023-02-17T11:36:04.914Z,19.10
2023-02-17T11:38:38.529Z,19.10
2023-02-17T11:41:07.769Z,19.40
2023-02-17T11:43:35.699Z,19.50
2023-02-17T11:46:09.030Z,19.40
2023-02-17T11:48:50.653Z,19.30
2023-02-17T11:51:36.623Z,19.20
2023-02-17T11:54:22.646Z,19.10
2023-02-17T11:57:04.304Z,18.70
2023-02-17T11:59:40.811Z,18.80
2023-02-17T12:02:16.289Z,18.70
2023-02-17T12:05:02.263Z,18.40
2023-02-17T12:07:58.967Z,18.20
2023-02-17T12:10:45.783Z,18.20
2023-02-17T12:13:24.831Z,18.00
2023-02-17T12:16:12.409Z,18.00
2023-02-17T12:18:45.703Z,17.90
2023-02-17T12:21:33.334Z,17.90
2023-02-17T12:24:07.012Z,17.80
2023-02-17T12:26:35.138Z,17.70
2023-02-17T12:29:02.377Z,17.60
2023-02-17T12:31:32.836Z,17.60
2023-02-17T12:34:07.210Z,17.60
2023-02-17T12:36:36.276Z,17.60
2023-02-17T12:39:10.576Z,17.60
2023-02-17T12:41:43.717Z,17.40
2023-02-17T12:44:20.417Z,17.30
2023-02-17T12:46:50.791Z,17.30
2023-02-17T12:52:26.244Z,17.30
2023-02-17T12:54:53.112Z,17.10
2023-02-17T12:57:19.997Z,17.00
2023-02-17T12:59:48.125Z,17.00
2023-02-17T13:02:15.019Z,16.90
2023-02-17T13:04:43.065Z,16.90
2023-02-17T13:07:18.696Z,16.80
2023-02-17T13:09:48.043Z,16.80
2023-02-17T13:12:23.717Z,16.80
2023-02-17T13:14:54.634Z,16.70
2023-02-17T13:17:41.703Z,16.60
2023-02-17T13:20:11.498Z,16.50
2023-02-17T13:22:39.442Z,16.50
2023-02-17T13:25:06.483Z,16.50
2023-02-17T13:27:33.315Z,16.40
2023-02-17T13:30:00.620Z,16.40
2023-02-17T13:32:28.925Z,16.40
2023-02-17T13:35:00.353Z,16.30
2023-02-17T13:37:33.171Z,16.40
2023-02-17T13:40:00.493Z,16.40
2023-02-17T13:42:27.491Z,16.30
2023-02-17T13:44:54.376Z,16.40
2023-02-17T13:47:40.054Z,16.20
2023-02-17T13:50:07.480Z,16.10
2023-02-17T13:52:34.672Z,16.10
2023-02-17T13:55:02.877Z,16.20
2023-02-17T13:57:30.937Z,16.20
2023-02-17T14:00:30.290Z,16.20
2023-02-17T14:02:58.662Z,16.10
2023-02-17T14:05:34.937Z,16.10
2023-02-17T14:08:06.579Z,16.10
2023-02-17T14:10:33.761Z,16.00
2023-02-17T14:13:00.720Z,16.00
2023-02-17T14:15:28.457Z,16.00
2023-02-17T14:17:56.081Z,16.00
2023-02-17T14:20:26.222Z,15.90
2023-02-17T14:23:04.279Z,16.00
2023-02-17T14:25:32.525Z,16.00
2023-02-17T14:27:59.529Z,16.00
2023-02-17T14:30:34.918Z,16.00
2023-02-17T14:33:18.323Z,15.90
2023-02-17T14:35:58.867Z,15.90
2023-02-17T14:38:27.218Z,15.80
2023-02-17T14:40:55.864Z,15.70
2023-02-17T14:43:23.223Z,15.80
2023-02-17T14:45:50.707Z,15.80
2023-02-17T14:48:18.242Z,15.80
2023-02-17T14:50:45.433Z,15.70
2023-02-17T14:53:24.856Z,15.70
2023-02-17T14:55:56.360Z,15.70
2023-02-17T14:58:24.240Z,15.60
2023-02-17T15:00:51.689Z,15.60
2023-02-17T15:03:18.688Z,15.50
2023-02-17T15:05:45.522Z,15.50
2023-02-17T15:08:14.741Z,15.40
2023-02-17T15:10:42.256Z,15.40
2023-02-17T15:13:17.031Z,15.30
2023-02-17T15:15:45.438Z,15.20
2023-02-17T15:18:12.706Z,15.10
2023-02-17T15:20:40.788Z,14.90
2023-02-17T15:23:26.419Z,14.90
2023-02-17T15:25:55.493Z,14.90
2023-02-17T15:28:22.723Z,14.90
2023-02-17T15:30:51.878Z,14.80
2023-02-17T15:33:20.038Z,14.80
2023-02-17T15:35:49.350Z,14.70
2023-02-17T15:38:16.392Z,14.70
2023-02-17T15:40:43.385Z,14.50
2023-02-17T15:43:15.782Z,14.50
2023-02-17T15:45:42.845Z,14.40
2023-02-17T15:48:32.023Z,14.40
2023-02-17T15:50:59.185Z,14.30
2023-02-17T15:53:26.300Z,14.20
2023-02-17T15:55:53.730Z,14.00
2023-02-17T15:58:21.856Z,13.90
2023-02-17T16:00:51.634Z,13.90
2023-02-17T16:03:19.041Z,13.80
2023-02-17T16:05:47.893Z,13.80
2023-02-17T16:08:14.995Z,13.70
2023-02-17T16:10:45.453Z,13.60
2023-02-17T16:13:17.693Z,13.50
2023-02-17T16:15:44.975Z,13.60
2023-02-17T16:18:19.959Z,13.40
2023-02-17T16:20:47.770Z,13.30
2023-02-17T16:23:15.032Z,13.20
2023-02-17T16:25:46.095Z,13.10
2023-02-17T16:28:21.129Z,13.10
2023-02-17T16:30:49.706Z,13.00
2023-02-17T16:33:18.399Z,12.80
2023-02-17T16:35:46.170Z,12.80
2023-02-17T16:38:13.169Z,12.70
2023-02-17T16:40:47.520Z,12.70
2023-02-17T16:43:16.189Z,12.60
2023-02-17T16:45:54.167Z,12.50
2023-02-17T16:48:25.265Z,12.40
2023-02-17T16:50:52.702Z,12.30
2023-02-17T16:53:20.148Z,12.10
2023-02-17T16:55:47.328Z,12.10
2023-02-17T16:58:16.136Z,12.00
2023-02-17T17:00:53.614Z,12.00
2023-02-17T17:03:24.504Z,12.00
2023-02-17T17:05:52.894Z,11.90
2023-02-17T17:08:21.930Z,11.80
2023-02-17T17:10:49.857Z,11.80
2023-02-17T17:13:17.212Z,11.60
2023-02-17T17:15:45.246Z,11.50
2023-02-17T17:18:18.478Z,11.60
2023-02-17T17:20:45.753Z,11.50
2023-02-17T17:23:15.148Z,11.50
2023-02-17T17:25:43.511Z,11.50
2023-02-17T17:28:15.432Z,11.40
2023-02-17T17:30:43.063Z,11.30
2023-02-17T17:33:10.317Z,11.30
2023-02-17T17:35:37.852Z,11.20
2023-02-17T17:38:05.259Z,11.20
2023-02-17T17:40:34.711Z,11.20
2023-02-17T17:43:02.635Z,11.10
2023-02-17T17:45:30.384Z,11.10
2023-02-17T17:47:58.149Z,10.90
2023-02-17T17:50:25.866Z,10.80
2023-02-17T17:52:54.072Z,10.80
2023-02-17T17:55:23.224Z,10.70
2023-02-17T17:57:50.931Z,10.70
2023-02-17T18:00:19.415Z,10.70
2023-02-17T18:02:48.638Z,10.70
2023-02-17T18:05:16.526Z,10.70
2023-02-17T18:07:44.106Z,10.60
2023-02-17T18:10:12.663Z,10.50
2023-02-17T18:12:42.467Z,10.40
2023-02-17T18:15:09.955Z,10.40
2023-02-17T18:17:38.897Z,10.50
2023-02-17T18:20:10.296Z,10.40
2023-02-17T18:22:38.470Z,10.30
2023-02-17T18:25:07.432Z,10.30
2023-02-17T18:27:41.210Z,10.20
2023-02-17T18:30:09.781Z,10.00
2023-02-17T18:32:37.162Z,10.00
2023-02-17T18:35:05.110Z,9.80
2023-02-17T18:37:33.796Z,9.80
2023-02-17T18:40:01.744Z,9.80
2023-02-17T18:42:33.115Z,9.80
2023-02-17T18:45:02.185Z,9.70
2023-02-17T18:47:30.555Z,9.70
2023-02-17T18:49:58.009Z,9.60
2023-02-17T18:52:26.084Z,9.60
2023-02-17T18:54:53.263Z,9.60
2023-02-17T18:57:20.710Z,9.50
2023-02-17T18:59:47.993Z,9.50
2023-02-17T19:02:15.533Z,9.40
2023-02-17T19:04:45.969Z,9.40
2023-02-17T19:07:13.791Z,9.30
2023-02-17T19:09:44.999Z,9.30
2023-02-17T19:12:15.703Z,9.20
2023-02-17T19:14:43.559Z,9.20
2023-02-17T19:17:11.809Z,9.10
2023-02-17T19:19:40.422Z,9.10
2023-02-17T19:22:09.391Z,9.10
2023-02-17T19:24:38.193Z,9.20
2023-02-17T19:27:07.033Z,9.00
2023-02-17T19:29:35.604Z,8.80
2023-02-17T19:32:04.061Z,8.70
2023-02-17T19:34:31.643Z,8.70
2023-02-17T19:37:00.944Z,8.70
2023-02-17T19:39:28.476Z,8.70
2023-02-17T19:41:56.190Z,8.70
2023-02-17T19:44:23.952Z,8.60
2023-02-17T19:46:51.888Z,8.60
2023-02-17T19:49:19.449Z,8.60
2023-02-17T19:51:47.130Z,8.70
2023-02-17T19:54:15.614Z,8.70
2023-02-17T19:56:43.391Z,8.70
2023-02-17T19:59:11.155Z,8.60
2023-02-17T20:01:40.257Z,8.60
2023-02-17T20:04:10.028Z,8.50
2023-02-17T20:06:42.399Z,8.40
2023-02-17T20:09:13.719Z,8.50
2023-02-17T20:11:41.989Z,8.40
2023-02-17T20:14:11.354Z,8.40
2023-02-17T20:16:43.084Z,8.40
2023-02-17T20:19:14.376Z,8.20
2023-02-17T20:21:45.403Z,8.20
2023-02-17T20:24:14.790Z,8.30
2023-02-17T20:26:44.583Z,8.20
2023-02-17T20:29:13.052Z,8.20
2023-02-17T20:31:41.599Z,8.20
2023-02-17T20:34:18.726Z,8.20
2023-02-17T20:36:46.543Z,8.10
2023-02-17T20:39:15.103Z,8.00
2023-02-17T20:41:43.351Z,8.00
2023-02-17T20:44:11.945Z,8.10
2023-02-17T20:46:40.477Z,8.10
2023-02-17T20:49:08.376Z,8.00
2023-02-17T20:51:36.090Z,7.90
2023-02-17T20:54:03.987Z,7.90
2023-02-17T20:56:36.038Z,7.90
2023-02-17T20:59:04.732Z,7.80
2023-02-17T21:01:32.677Z,7.80
2023-02-17T21:04:00.398Z,7.80
2023-02-17T21:06:29.429Z,7.80
2023-02-17T21:08:59.101Z,7.60
2023-02-17T21:11:27.222Z,7.50
2023-02-17T21:13:57.633Z,7.50
2023-02-17T21:16:28.646Z,7.50
2023-02-17T21:18:56.119Z,7.50
2023-02-17T21:21:24.285Z,7.40
2023-02-17T21:23:51.846Z,7.40
2023-02-17T21:26:19.770Z,7.30
2023-02-17T21:28:47.514Z,7.30
2023-02-17T21:31:15.597Z,7.30
2023-02-17T21:33:43.773Z,7.20
2023-02-17T21:36:12.731Z,7.30
2023-02-17T21:38:40.297Z,7.30
2023-02-17T21:41:11.680Z,7.20
2023-02-17T21:43:57.741Z,7.20
2023-02-17T21:46:26.088Z,7.10
2023-02-17T21:48:53.643Z,7.10
2023-02-17T21:51:21.147Z,7.10
2023-02-17T21:53:48.328Z,7.00
2023-02-17T21:56:16.165Z,7.00
2023-02-17T21:58:50.342Z,7.00
2023-02-17T22:01:18.094Z,6.90
2023-02-17T22:03:45.475Z,6.90
2023-02-17T22:06:17.098Z,7.00
2023-02-17T22:08:44.196Z,6.90
2023-02-17T22:11:21.567Z,6.80
2023-02-17T22:13:48.618Z,6.80
2023-02-17T22:16:15.897Z,6.80
2023-02-17T22:18:42.878Z,6.90
2023-02-17T22:21:11.368Z,6.80
2023-02-17T22:23:38.838Z,6.80
2023-02-17T22:26:10.085Z,6.70
2023-02-17T22:28:37.123Z,6.70
2023-02-17T22:31:04.557Z,6.70
2023-02-17T22:33:31.842Z,6.60
2023-02-17T22:36:02.322Z,6.60
2023-02-17T22:38:29.283Z,6.70
2023-02-17T22:40:56.265Z,6.70
2023-02-17T22:43:23.342Z,6.60
2023-02-17T22:45:56.944Z,6.70
2023-02-17T22:48:23.809Z,6.60
2023-02-17T22:50:50.725Z,6.60
2023-02-17T22:53:17.774Z,6.60
2023-02-17T22:55:50.830Z,6.60
2023-02-17T22:58:17.719Z,6.50
2023-02-17T23:00:44.568Z,6.50
2023-02-17T23:03:11.616Z,6.60
2023-02-17T23:05:38.504Z,6.50
2023-02-17T23:08:05.685Z,6.50
2023-02-17T23:10:32.517Z,6.50
2023-02-17T23:12:59.358Z,6.40
2023-02-17T23:15:39.481Z,6.50
2023-02-17T23:18:07.951Z,6.40
2023-02-17T23:20:35.070Z,6.30
2023-02-17T23:23:01.929Z,6.30
2023-02-17T23:25:28.760Z,6.30
2023-02-17T23:27:55.632Z,6.30
2023-02-17T23:30:23.275Z,6.30
2023-02-17T23:32:50.295Z,6.20
2023-02-17T23:35:17.160Z,6.20
2023-02-17T23:37:44.078Z,6.30
2023-02-17T23:40:11.556Z,6.20
2023-02-17T23:42:38.452Z,6.20
2023-02-17T23:45:05.491Z,6.20
2023-02-17T23:47:32.401Z,6.20
2023-02-17T23:49:59.208Z,6.10
2023-02-17T23:52:26.045Z,6.10
2023-02-17T23:54:52.963Z,6.10
2023-02-17T23:57:19.807Z,6.10
2023-02-17T23:59:46.607Z,6.10
